sensor_id;sensor_type;location;lat;lon;timestamp;pressure;altitude;pressure_sealevel;temperature;humidity
13954;BME280;7049;49.444;8.522;2023-04-01T00:01:14;76855.66;;;-3.47;87.06
13954;BME280;7049;49.444;8.522;2023-04-01T00:06:18;76859.84;;;-3.47;86.90
13954;BME280;7049;49.444;8.522;2023-04-01T00:11:21;76859.84;;;-3.47;86.92
13954;BME280;7049;49.444;8.522;2023-04-01T00:16:22;76864.03;;;-3.47;86.79
13954;BME280;7049;49.444;8.522;2023-04-01T00:21:24;76851.47;;;-3.47;85.71
13954;BME280;7049;49.444;8.522;2023-04-01T00:26:27;76847.31;;;-3.47;85.11
13954;BME280;7049;49.444;8.522;2023-04-01T00:31:28;76849.41;;;-3.47;85.36
13954;BME280;7049;49.444;8.522;2023-04-01T00:36:30;76864.03;;;-3.47;85.60
13954;BME280;7049;49.444;8.522;2023-04-01T00:41:32;76851.47;;;-3.47;84.46
13954;BME280;7049;49.444;8.522;2023-04-01T00:46:34;76851.47;;;-3.47;84.69
13954;BME280;7049;49.444;8.522;2023-04-01T00:51:37;76855.66;;;-3.47;84.05
13954;BME280;7049;49.444;8.522;2023-04-01T00:56:45;76836.84;;;-3.47;83.18
13954;BME280;7049;49.444;8.522;2023-04-01T01:01:49;76845.22;;;-3.47;83.46
13954;BME280;7049;49.444;8.522;2023-04-01T01:06:58;76843.13;;;-3.47;83.49
13954;BME280;7049;49.444;8.522;2023-04-01T01:12:07;76838.94;;;-3.47;83.11
13954;BME280;7049;49.444;8.522;2023-04-01T01:17:16;76838.94;;;-3.47;82.91
13954;BME280;7049;49.444;8.522;2023-04-01T01:22:49;76836.84;;;-3.47;82.41
13954;BME280;7049;49.444;8.522;2023-04-01T01:28:05;76838.94;;;-3.47;82.64
13954;BME280;7049;49.444;8.522;2023-04-01T01:33:32;76843.13;;;-3.47;82.66
13954;BME280;7049;49.444;8.522;2023-04-01T01:38:38;76838.94;;;-3.47;82.23
13954;BME280;7049;49.444;8.522;2023-04-01T01:43:42;76818.00;;;-3.47;81.21
13954;BME280;7049;49.444;8.522;2023-04-01T01:48:46;76822.19;;;-3.47;81.15
13954;BME280;7049;49.444;8.522;2023-04-01T01:53:50;76818.00;;;-3.47;81.59
13954;BME280;7049;49.444;8.522;2023-04-01T01:58:53;76828.47;;;-3.47;82.07
13954;BME280;7049;49.444;8.522;2023-04-01T02:04:20;76818.00;;;-3.47;81.95
13954;BME280;7049;49.444;8.522;2023-04-01T02:09:24;76826.38;;;-3.47;82.21
13954;BME280;7049;49.444;8.522;2023-04-01T02:14:28;76826.38;;;-3.47;82.39
13954;BME280;7049;49.444;8.522;2023-04-01T02:19:33;76832.66;;;-3.47;82.66
13954;BME280;7049;49.444;8.522;2023-04-01T02:24:39;76834.75;;;-3.47;83.16
13954;BME280;7049;49.444;8.522;2023-04-01T02:29:41;76822.19;;;-3.47;82.15
13954;BME280;7049;49.444;8.522;2023-04-01T02:34:43;76830.56;;;-3.47;82.32
13954;BME280;7049;49.444;8.522;2023-04-01T02:39:45;76838.94;;;-3.47;82.08
13954;BME280;7049;49.444;8.522;2023-04-01T02:44:47;76830.56;;;-3.47;82.03
13954;BME280;7049;49.444;8.522;2023-04-01T02:49:48;76832.66;;;-3.47;82.01
13954;BME280;7049;49.444;8.522;2023-04-01T02:54:52;76834.75;;;-3.47;82.26
13954;BME280;7049;49.444;8.522;2023-04-01T02:59:53;76834.75;;;-3.47;82.81
13954;BME280;7049;49.444;8.522;2023-04-01T03:04:55;76843.13;;;-3.47;83.24
13954;BME280;7049;49.444;8.522;2023-04-01T03:09:57;76834.75;;;-3.47;83.76
13954;BME280;7049;49.444;8.522;2023-04-01T03:14:59;76838.94;;;-3.47;83.68
13954;BME280;7049;49.444;8.522;2023-04-01T03:20:00;76843.13;;;-3.47;84.11
13954;BME280;7049;49.444;8.522;2023-04-01T03:25:07;76847.31;;;-3.47;84.99
13954;BME280;7049;49.444;8.522;2023-04-01T03:30:09;76859.84;;;-3.47;85.93
13954;BME280;7049;49.444;8.522;2023-04-01T03:35:10;76843.13;;;-3.47;84.44
13954;BME280;7049;49.444;8.522;2023-04-01T03:40:13;76853.56;;;-3.47;85.19
13954;BME280;7049;49.444;8.522;2023-04-01T03:45:15;76851.47;;;-3.47;84.30
13954;BME280;7049;49.444;8.522;2023-04-01T03:50:16;76834.75;;;-3.47;82.95
13954;BME280;7049;49.444;8.522;2023-04-01T03:55:19;76841.03;;;-3.47;83.12
13954;BME280;7049;49.444;8.522;2023-04-01T04:00:21;76832.66;;;-3.47;82.24
13954;BME280;7049;49.444;8.522;2023-04-01T04:05:22;76832.66;;;-3.47;82.35
13954;BME280;7049;49.444;8.522;2023-04-01T04:10:25;76830.56;;;-3.47;81.54
13954;BME280;7049;49.444;8.522;2023-04-01T04:15:26;76847.31;;;-3.47;81.82
13954;BME280;7049;49.444;8.522;2023-04-01T04:20:28;76830.56;;;-3.47;81.58
13954;BME280;7049;49.444;8.522;2023-04-01T04:25:31;76830.56;;;-3.47;80.53
13954;BME280;7049;49.444;8.522;2023-04-01T04:30:32;76826.38;;;-3.47;81.95
13954;BME280;7049;49.444;8.522;2023-04-01T04:35:33;76828.47;;;-3.47;82.85
13954;BME280;7049;49.444;8.522;2023-04-01T04:40:40;76822.19;;;-3.47;83.12
13954;BME280;7049;49.444;8.522;2023-04-01T04:45:42;76843.13;;;-3.47;84.63
13954;BME280;7049;49.444;8.522;2023-04-01T04:50:44;76847.31;;;-3.47;85.38
13954;BME280;7049;49.444;8.522;2023-04-01T04:55:48;76855.66;;;-3.47;86.65
13954;BME280;7049;49.444;8.522;2023-04-01T05:00:50;76864.03;;;-3.47;86.55
13954;BME280;7049;49.444;8.522;2023-04-01T05:05:53;76868.22;;;-3.47;86.62
13954;BME280;7049;49.444;8.522;2023-04-01T05:10:56;76864.03;;;-3.47;86.73
13954;BME280;7049;49.444;8.522;2023-04-01T05:15:57;76868.22;;;-3.47;86.66
13954;BME280;7049;49.444;8.522;2023-04-01T05:20:59;76876.59;;;-3.47;86.99
13954;BME280;7049;49.444;8.522;2023-04-01T05:26:03;76874.50;;;-3.47;86.97
13954;BME280;7049;49.444;8.522;2023-04-01T05:31:07;76874.50;;;-3.47;87.20
13954;BME280;7049;49.444;8.522;2023-04-01T05:36:10;76872.41;;;-3.47;87.52
13954;BME280;7049;49.444;8.522;2023-04-01T05:41:14;76859.84;;;-3.47;87.09
13954;BME280;7049;49.444;8.522;2023-04-01T05:46:15;76855.66;;;-3.47;87.10
13954;BME280;7049;49.444;8.522;2023-04-01T05:51:17;76855.66;;;-3.47;87.62
13954;BME280;7049;49.444;8.522;2023-04-01T05:56:20;76864.03;;;-3.47;87.58
13954;BME280;7049;49.444;8.522;2023-04-01T06:01:21;76857.75;;;-3.47;88.27
13954;BME280;7049;49.444;8.522;2023-04-01T06:06:24;76851.47;;;-3.47;88.59
13954;BME280;7049;49.444;8.522;2023-04-01T06:11:36;76861.94;;;-3.47;88.36
13954;BME280;7049;49.444;8.522;2023-04-01T06:16:53;76838.94;;;-3.47;87.73
13954;BME280;7049;49.444;8.522;2023-04-01T06:22:26;76849.41;;;-3.47;87.75
13954;BME280;7049;49.444;8.522;2023-04-01T06:27:53;76847.31;;;-3.47;88.03
13954;BME280;7049;49.444;8.522;2023-04-01T06:33:11;76838.94;;;-3.47;87.10
13954;BME280;7049;49.444;8.522;2023-04-01T06:38:27;76847.31;;;-3.47;87.00
13954;BME280;7049;49.444;8.522;2023-04-01T06:43:39;76826.38;;;-3.47;86.27
13954;BME280;7049;49.444;8.522;2023-04-01T06:49:01;76841.03;;;-3.47;86.06
13954;BME280;7049;49.444;8.522;2023-04-01T06:54:07;76830.56;;;-3.47;86.42
13954;BME280;7049;49.444;8.522;2023-04-01T06:59:13;76832.66;;;-3.47;86.36
13954;BME280;7049;49.444;8.522;2023-04-01T07:04:20;76826.38;;;-3.47;87.24
13954;BME280;7049;49.444;8.522;2023-04-01T07:09:27;76832.66;;;-3.47;87.43
13954;BME280;7049;49.444;8.522;2023-04-01T07:14:36;76828.47;;;-3.47;87.75
13954;BME280;7049;49.444;8.522;2023-04-01T07:19:42;76826.38;;;-3.47;87.84
13954;BME280;7049;49.444;8.522;2023-04-01T07:24:46;76826.38;;;-3.47;88.40
13954;BME280;7049;49.444;8.522;2023-04-01T07:29:49;76826.38;;;-3.47;89.20
13954;BME280;7049;49.444;8.522;2023-04-01T07:34:59;76822.19;;;-3.47;89.51
13954;BME280;7049;49.444;8.522;2023-04-01T07:40:15;76818.00;;;-3.47;89.41
13954;BME280;7049;49.444;8.522;2023-04-01T07:45:27;76820.09;;;-3.47;89.92
13954;BME280;7049;49.444;8.522;2023-04-01T07:50:32;76820.09;;;-3.47;90.22
13954;BME280;7049;49.444;8.522;2023-04-01T07:55:40;76818.00;;;-3.47;90.96
13954;BME280;7049;49.444;8.522;2023-04-01T08:00:49;76832.66;;;-3.47;91.28
13954;BME280;7049;49.444;8.522;2023-04-01T08:05:56;76828.47;;;-3.47;91.38
13954;BME280;7049;49.444;8.522;2023-04-01T08:11:04;76828.47;;;-3.47;90.98
13954;BME280;7049;49.444;8.522;2023-04-01T08:16:16;76826.38;;;-3.47;91.26
13954;BME280;7049;49.444;8.522;2023-04-01T08:21:22;76843.13;;;-3.47;91.58
13954;BME280;7049;49.444;8.522;2023-04-01T08:26:30;76847.31;;;-3.47;92.01
13954;BME280;7049;49.444;8.522;2023-04-01T08:31:38;76855.66;;;-3.47;93.33
13954;BME280;7049;49.444;8.522;2023-04-01T08:36:44;76864.03;;;-3.47;94.48
13954;BME280;7049;49.444;8.522;2023-04-01T08:42:02;76864.03;;;-3.47;94.71
13954;BME280;7049;49.444;8.522;2023-04-01T08:47:26;76859.84;;;-3.47;95.03
13954;BME280;7049;49.444;8.522;2023-04-01T08:52:36;76857.75;;;-3.47;96.07
13954;BME280;7049;49.444;8.522;2023-04-01T08:57:45;76855.66;;;-3.47;96.07
13954;BME280;7049;49.444;8.522;2023-04-01T09:03:13;76849.41;;;-3.47;96.41
13954;BME280;7049;49.444;8.522;2023-04-01T09:08:30;76838.94;;;-3.47;95.83
13954;BME280;7049;49.444;8.522;2023-04-01T09:19:14;76847.31;;;-3.47;96.04
13954;BME280;7049;49.444;8.522;2023-04-01T09:24:40;76849.41;;;-3.47;95.90
13954;BME280;7049;49.444;8.522;2023-04-01T09:35:38;76855.66;;;-3.47;96.36
13954;BME280;7049;49.444;8.522;2023-04-01T09:40:47;76864.03;;;-3.47;96.97
13954;BME280;7049;49.444;8.522;2023-04-01T09:46:07;76859.84;;;-3.47;97.08
13954;BME280;7049;49.444;8.522;2023-04-01T09:51:22;76853.56;;;-3.47;97.19
13954;BME280;7049;49.444;8.522;2023-04-01T10:08:21;76841.03;;;-3.47;97.02
13954;BME280;7049;49.444;8.522;2023-04-01T10:13:55;76830.56;;;-3.47;96.42
13954;BME280;7049;49.444;8.522;2023-04-01T10:25:16;76822.19;;;-3.47;96.38
13954;BME280;7049;49.444;8.522;2023-04-01T10:30:31;76818.00;;;-3.47;96.25
13954;BME280;7049;49.444;8.522;2023-04-01T10:36:15;76824.28;;;-3.47;96.64
13954;BME280;7049;49.444;8.522;2023-04-01T10:41:55;76809.66;;;-3.47;96.66
13954;BME280;7049;49.444;8.522;2023-04-01T10:47:24;76809.66;;;-3.47;97.01
13954;BME280;7049;49.444;8.522;2023-04-01T10:52:55;76805.47;;;-3.47;96.44
13954;BME280;7049;49.444;8.522;2023-04-01T10:58:27;76792.91;;;-3.47;96.14
13954;BME280;7049;49.444;8.522;2023-04-01T11:04:01;76795.00;;;-3.47;96.71
13954;BME280;7049;49.444;8.522;2023-04-01T11:09:31;76776.19;;;-3.47;96.05
13954;BME280;7049;49.444;8.522;2023-04-01T11:20:40;76786.63;;;-3.47;96.27
13954;BME280;7049;49.444;8.522;2023-04-01T11:26:02;76778.28;;;-3.47;95.74
13954;BME280;7049;49.444;8.522;2023-04-01T11:31:24;76784.53;;;-3.47;95.73
13954;BME280;7049;49.444;8.522;2023-04-01T11:36:37;76782.47;;;-3.47;95.10
13954;BME280;7049;49.444;8.522;2023-04-01T11:41:46;76782.47;;;-3.47;95.65
13954;BME280;7049;49.444;8.522;2023-04-01T11:52:54;76784.53;;;-3.47;96.41
13954;BME280;7049;49.444;8.522;2023-04-01T12:03:42;76790.81;;;-3.47;96.56
13954;BME280;7049;49.444;8.522;2023-04-01T12:08:55;76797.09;;;-3.47;96.18
13954;BME280;7049;49.444;8.522;2023-04-01T12:14:04;76805.47;;;-3.47;95.88
13954;BME280;7049;49.444;8.522;2023-04-01T12:19:16;76788.72;;;-3.47;95.00
13954;BME280;7049;49.444;8.522;2023-04-01T12:24:47;76797.09;;;-3.47;95.04
13954;BME280;7049;49.444;8.522;2023-04-01T12:30:06;76792.91;;;-3.47;94.20
13954;BME280;7049;49.444;8.522;2023-04-01T12:35:17;76792.91;;;-3.47;94.52
13954;BME280;7049;49.444;8.522;2023-04-01T12:40:40;76788.72;;;-3.47;95.37
13954;BME280;7049;49.444;8.522;2023-04-01T12:45:54;76790.81;;;-3.47;95.23
13954;BME280;7049;49.444;8.522;2023-04-01T12:56:39;76784.53;;;-3.47;94.23
13954;BME280;7049;49.444;8.522;2023-04-01T13:02:07;76780.38;;;-3.47;90.88
13954;BME280;7049;49.444;8.522;2023-04-01T13:07:40;76780.38;;;-3.47;89.87
13954;BME280;7049;49.444;8.522;2023-04-01T13:12:56;76778.28;;;-3.47;88.97
13954;BME280;7049;49.444;8.522;2023-04-01T13:18:08;76776.19;;;-3.47;89.63
13954;BME280;7049;49.444;8.522;2023-04-01T13:23:33;76767.81;;;-3.47;91.30
13954;BME280;7049;49.444;8.522;2023-04-01T13:28:40;76784.53;;;-3.47;91.73
13954;BME280;7049;49.444;8.522;2023-04-01T13:33:49;76782.47;;;-3.47;90.08
13954;BME280;7049;49.444;8.522;2023-04-01T13:39:18;76788.72;;;-3.47;88.18
13954;BME280;7049;49.444;8.522;2023-04-01T13:44:31;76776.19;;;-3.47;88.30
13954;BME280;7049;49.444;8.522;2023-04-01T13:55:28;76774.09;;;-3.47;86.70
13954;BME280;7049;49.444;8.522;2023-04-01T14:00:38;76772.00;;;-3.47;86.06
13954;BME280;7049;49.444;8.522;2023-04-01T14:05:59;76767.81;;;-3.47;83.71
13954;BME280;7049;49.444;8.522;2023-04-01T14:11:13;76776.19;;;-3.47;84.30
13954;BME280;7049;49.444;8.522;2023-04-01T14:16:58;76776.19;;;-3.47;84.14
13954;BME280;7049;49.444;8.522;2023-04-01T14:22:13;76780.38;;;-3.47;85.07
13954;BME280;7049;49.444;8.522;2023-04-01T14:27:41;76774.09;;;-3.47;84.43
13954;BME280;7049;49.444;8.522;2023-04-01T14:32:52;76784.53;;;-3.47;84.43
13954;BME280;7049;49.444;8.522;2023-04-01T14:38:11;76790.81;;;-3.47;83.53
13954;BME280;7049;49.444;8.522;2023-04-01T14:43:28;76797.09;;;-3.47;83.36
13954;BME280;7049;49.444;8.522;2023-04-01T14:48:37;76805.47;;;-3.47;84.35
13954;BME280;7049;49.444;8.522;2023-04-01T14:53:43;76801.28;;;-3.47;83.38
13954;BME280;7049;49.444;8.522;2023-04-01T14:58:49;76805.47;;;-3.47;83.15
13954;BME280;7049;49.444;8.522;2023-04-01T15:03:58;76813.84;;;-3.47;82.55
13954;BME280;7049;49.444;8.522;2023-04-01T15:09:14;76830.56;;;-3.47;84.29
13954;BME280;7049;49.444;8.522;2023-04-01T15:14:28;76834.75;;;-3.47;83.86
13954;BME280;7049;49.444;8.522;2023-04-01T15:19:55;76838.94;;;-3.47;84.65
13954;BME280;7049;49.444;8.522;2023-04-01T15:30:32;76841.03;;;-3.47;82.00
13954;BME280;7049;49.444;8.522;2023-04-01T15:35:42;76843.13;;;-3.47;83.60
13954;BME280;7049;49.444;8.522;2023-04-01T15:40:49;76847.31;;;-3.47;83.91
13954;BME280;7049;49.444;8.522;2023-04-01T15:45:58;76849.41;;;-3.47;84.84
13954;BME280;7049;49.444;8.522;2023-04-01T15:51:16;76849.41;;;-3.47;84.17
13954;BME280;7049;49.444;8.522;2023-04-01T15:56:41;76851.47;;;-3.47;83.73
13954;BME280;7049;49.444;8.522;2023-04-01T16:01:53;76857.75;;;-3.47;84.11
13954;BME280;7049;49.444;8.522;2023-04-01T16:07:10;76864.03;;;-3.47;84.56
13954;BME280;7049;49.444;8.522;2023-04-01T16:12:16;76866.13;;;-3.47;84.07
13954;BME280;7049;49.444;8.522;2023-04-01T16:17:34;76870.31;;;-3.47;83.82
13954;BME280;7049;49.444;8.522;2023-04-01T16:22:40;76874.50;;;-3.47;82.04
13954;BME280;7049;49.444;8.522;2023-04-01T16:27:50;76880.78;;;-3.47;82.07
13954;BME280;7049;49.444;8.522;2023-04-01T16:32:57;76887.06;;;-3.47;81.17
13954;BME280;7049;49.444;8.522;2023-04-01T16:38:11;76887.06;;;-3.47;79.43
13954;BME280;7049;49.444;8.522;2023-04-01T16:43:20;76889.13;;;-3.47;77.62
13954;BME280;7049;49.444;8.522;2023-04-01T16:48:28;76887.06;;;-3.47;75.94
13954;BME280;7049;49.444;8.522;2023-04-01T16:53:42;76905.88;;;-3.47;76.57
13954;BME280;7049;49.444;8.522;2023-04-01T16:58:55;76910.06;;;-3.47;75.38
13954;BME280;7049;49.444;8.522;2023-04-01T17:04:04;76920.53;;;-3.47;76.33
13954;BME280;7049;49.444;8.522;2023-04-01T17:09:31;76922.63;;;-3.47;75.65
13954;BME280;7049;49.444;8.522;2023-04-01T17:14:43;76937.25;;;-3.47;76.63
13954;BME280;7049;49.444;8.522;2023-04-01T17:20:01;76930.97;;;-3.47;74.42
13954;BME280;7049;49.444;8.522;2023-04-01T17:25:41;76943.53;;;-3.47;74.54
13954;BME280;7049;49.444;8.522;2023-04-01T17:30:53;76943.53;;;-3.47;74.29
13954;BME280;7049;49.444;8.522;2023-04-01T17:35:59;76949.81;;;-3.47;74.65
13954;BME280;7049;49.444;8.522;2023-04-01T17:41:10;76958.16;;;-3.47;75.67
13954;BME280;7049;49.444;8.522;2023-04-01T17:46:27;76968.63;;;-3.47;76.94
13954;BME280;7049;49.444;8.522;2023-04-01T17:51:33;76972.81;;;-3.47;77.40
13954;BME280;7049;49.444;8.522;2023-04-01T17:56:53;76981.19;;;-3.47;78.27
13954;BME280;7049;49.444;8.522;2023-04-01T18:02:06;76997.91;;;-3.47;80.03
13954;BME280;7049;49.444;8.522;2023-04-01T18:07:32;77014.66;;;-3.47;81.91
13954;BME280;7049;49.444;8.522;2023-04-01T18:12:55;77023.03;;;-3.47;82.64
13954;BME280;7049;49.444;8.522;2023-04-01T18:18:08;77043.94;;;-3.47;84.02
13954;BME280;7049;49.444;8.522;2023-04-01T18:23:21;77064.88;;;-3.47;84.74
13954;BME280;7049;49.444;8.522;2023-04-01T18:28:36;77083.69;;;-3.47;85.82
13954;BME280;7049;49.444;8.522;2023-04-01T18:33:56;77098.34;;;-3.47;86.32
13954;BME280;7049;49.444;8.522;2023-04-01T18:39:04;77108.78;;;-3.47;87.46
13954;BME280;7049;49.444;8.522;2023-04-01T18:44:25;77119.25;;;-3.47;88.07
13954;BME280;7049;49.444;8.522;2023-04-01T18:49:33;77123.44;;;-3.47;87.83
13954;BME280;7049;49.444;8.522;2023-04-01T18:54:42;77123.44;;;-3.47;87.14
13954;BME280;7049;49.444;8.522;2023-04-01T18:59:51;77144.38;;;-3.47;88.40
13954;BME280;7049;49.444;8.522;2023-04-01T19:05:01;77161.09;;;-3.47;89.64
13954;BME280;7049;49.444;8.522;2023-04-01T19:10:14;77163.19;;;-3.47;89.68
13954;BME280;7049;49.444;8.522;2023-04-01T19:15:37;77169.47;;;-3.47;89.51
13954;BME280;7049;49.444;8.522;2023-04-01T19:20:43;77161.09;;;-3.47;88.99
13954;BME280;7049;49.444;8.522;2023-04-01T19:25:49;77175.75;;;-3.47;88.48
13954;BME280;7049;49.444;8.522;2023-04-01T19:30:56;77182.03;;;-3.47;88.77
13954;BME280;7049;49.444;8.522;2023-04-01T19:36:05;77186.19;;;-3.47;89.19
13954;BME280;7049;49.444;8.522;2023-04-01T19:41:20;77192.47;;;-3.47;89.68
13954;BME280;7049;49.444;8.522;2023-04-01T19:46:32;77202.94;;;-3.47;89.18
13954;BME280;7049;49.444;8.522;2023-04-01T19:51:40;77207.13;;;-3.47;90.55
13954;BME280;7049;49.444;8.522;2023-04-01T19:56:52;77219.69;;;-3.47;90.62
13954;BME280;7049;49.444;8.522;2023-04-01T20:02:11;77223.88;;;-3.47;90.82
13954;BME280;7049;49.444;8.522;2023-04-01T20:07:23;77223.88;;;-3.47;90.83
13954;BME280;7049;49.444;8.522;2023-04-01T20:12:38;77225.94;;;-3.47;90.32
13954;BME280;7049;49.444;8.522;2023-04-01T20:17:45;77230.13;;;-3.47;89.70
13954;BME280;7049;49.444;8.522;2023-04-01T20:23:01;77240.59;;;-3.47;90.18
13954;BME280;7049;49.444;8.522;2023-04-01T20:28:11;77257.34;;;-3.47;90.92
13954;BME280;7049;49.444;8.522;2023-04-01T20:33:46;77253.16;;;-3.47;90.47
13954;BME280;7049;49.444;8.522;2023-04-01T20:39:09;77251.06;;;-3.47;90.90
13954;BME280;7049;49.444;8.522;2023-04-01T20:44:19;77261.53;;;-3.47;90.87
13954;BME280;7049;49.444;8.522;2023-04-01T20:49:33;77271.97;;;-3.47;91.35
13954;BME280;7049;49.444;8.522;2023-04-01T20:54:48;77269.88;;;-3.47;91.11
13954;BME280;7049;49.444;8.522;2023-04-01T21:05:35;77259.44;;;-3.47;90.31
13954;BME280;7049;49.444;8.522;2023-04-01T21:10:43;77274.06;;;-3.47;91.14
13954;BME280;7049;49.444;8.522;2023-04-01T21:16:04;77282.44;;;-3.47;91.44
13954;BME280;7049;49.444;8.522;2023-04-01T21:21:25;77292.91;;;-3.47;91.85
13954;BME280;7049;49.444;8.522;2023-04-01T21:26:43;77303.38;;;-3.47;92.46
13954;BME280;7049;49.444;8.522;2023-04-01T21:32:06;77307.53;;;-3.47;92.79
13954;BME280;7049;49.444;8.522;2023-04-01T21:37:26;77313.81;;;-3.47;93.03
13954;BME280;7049;49.444;8.522;2023-04-01T21:42:36;77320.09;;;-3.47;92.56
13954;BME280;7049;49.444;8.522;2023-04-01T21:48:21;77320.09;;;-3.47;92.74
13954;BME280;7049;49.444;8.522;2023-04-01T21:53:59;77330.56;;;-3.47;93.09
13954;BME280;7049;49.444;8.522;2023-04-01T22:04:49;77336.84;;;-3.47;92.71
13954;BME280;7049;49.444;8.522;2023-04-01T22:10:01;77353.56;;;-3.47;92.68
13954;BME280;7049;49.444;8.522;2023-04-01T22:15:13;77341.03;;;-3.47;92.37
13954;BME280;7049;49.444;8.522;2023-04-01T22:20:25;77336.84;;;-3.47;91.97
13954;BME280;7049;49.444;8.522;2023-04-01T22:25:35;77349.38;;;-3.47;92.08
13954;BME280;7049;49.444;8.522;2023-04-01T22:30:42;77355.66;;;-3.47;92.31
13954;BME280;7049;49.444;8.522;2023-04-01T22:35:50;77353.56;;;-3.47;92.39
13954;BME280;7049;49.444;8.522;2023-04-01T22:41:01;77359.84;;;-3.47;92.19
13954;BME280;7049;49.444;8.522;2023-04-01T22:46:21;77364.03;;;-3.47;92.51
13954;BME280;7049;49.444;8.522;2023-04-01T22:51:29;77368.22;;;-3.47;92.95
13954;BME280;7049;49.444;8.522;2023-04-01T22:56:36;77366.13;;;-3.47;92.66
13954;BME280;7049;49.444;8.522;2023-04-01T23:01:43;77382.88;;;-3.47;93.50
13954;BME280;7049;49.444;8.522;2023-04-01T23:06:50;77387.06;;;-3.47;93.68
13954;BME280;7049;49.444;8.522;2023-04-01T23:11:55;77391.22;;;-3.47;93.66
13954;BME280;7049;49.444;8.522;2023-04-01T23:17:03;77393.31;;;-3.47;93.70
13954;BME280;7049;49.444;8.522;2023-04-01T23:22:17;77403.78;;;-3.47;95.32
13954;BME280;7049;49.444;8.522;2023-04-01T23:27:28;77395.41;;;-3.47;95.86
13954;BME280;7049;49.444;8.522;2023-04-01T23:32:34;77420.53;;;-3.47;96.50
13954;BME280;7049;49.444;8.522;2023-04-01T23:37:36;77428.91;;;-3.47;98.00
13954;BME280;7049;49.444;8.522;2023-04-01T23:42:40;77445.63;;;-3.47;98.90
13954;BME280;7049;49.444;8.522;2023-04-01T23:47:45;77454.00;;;-3.47;99.36
13954;BME280;7049;49.444;8.522;2023-04-01T23:52:53;77462.38;;;-3.47;99.58
13954;BME280;7049;49.444;8.522;2023-04-01T23:58:13;77470.75;;;-3.47;100.00
